createdAt,value
2022-10-30T00:00:01.190Z,44.40
2022-10-30T00:02:28.285Z,44.58
2022-10-30T00:04:55.523Z,39.25
2022-10-30T00:07:22.523Z,44.15
2022-10-30T00:09:49.581Z,44.35
2022-10-30T00:12:16.598Z,38.30
2022-10-30T00:14:43.692Z,42.03
2022-10-30T00:17:10.734Z,39.25
2022-10-30T00:19:37.820Z,40.72
2022-10-30T00:24:30.829Z,37.33
2022-10-30T00:26:57.895Z,41.75
2022-10-30T00:29:26.289Z,48.10
2022-10-30T00:31:53.701Z,45.85
2022-10-30T00:34:20.691Z,35.35
2022-10-30T00:36:47.686Z,41.65
2022-10-30T00:39:14.695Z,35.25
2022-10-30T00:41:42.010Z,37.67
2022-10-30T00:44:27.785Z,39.58
2022-10-30T00:46:54.778Z,46.15
2022-10-30T00:49:21.759Z,50.67
2022-10-30T00:51:50.074Z,49.80
2022-10-30T00:54:17.173Z,53.70
2022-10-30T00:56:44.181Z,52.78
2022-10-30T00:59:15.612Z,43.72
2022-10-30T01:01:43.623Z,37.80
2022-10-30T01:04:10.724Z,36.28
2022-10-30T01:06:38.481Z,29.70
2022-10-30T01:09:05.743Z,32.45
2022-10-30T01:11:32.904Z,35.80
2022-10-30T01:14:01.883Z,39.78
2022-10-30T01:16:35.092Z,46.80
2022-10-30T01:19:09.445Z,39.83
2022-10-30T01:21:49.837Z,38.45
2022-10-30T01:24:29.135Z,53.00
2022-10-30T01:27:09.284Z,50.45
2022-10-30T01:29:46.632Z,59.20
2022-10-30T01:32:32.428Z,66.65
2022-10-30T01:35:00.566Z,46.20
2022-10-30T01:37:50.897Z,54.50
2022-10-30T01:40:18.346Z,53.83
2022-10-30T01:42:48.486Z,47.67
2022-10-30T01:45:26.346Z,46.63
2022-10-30T01:48:11.822Z,44.33
2022-10-30T01:50:45.018Z,48.78
2022-10-30T01:53:30.795Z,42.55
2022-10-30T01:56:33.351Z,43.15
2022-10-30T01:59:03.893Z,50.53
2022-10-30T02:04:00.028Z,48.63
2022-10-30T02:06:27.092Z,51.42
2022-10-30T02:08:57.305Z,69.50
2022-10-30T02:11:27.426Z,70.13
2022-10-30T02:13:54.903Z,67.97
2022-10-30T02:16:22.291Z,86.88
2022-10-30T02:18:49.323Z,76.45
2022-10-30T02:21:16.343Z,79.65
2022-10-30T02:23:43.440Z,77.97
2022-10-30T02:26:10.473Z,80.18
2022-10-30T02:28:37.488Z,67.38
2022-10-30T02:31:04.625Z,70.40
2022-10-30T02:33:31.637Z,58.58
2022-10-30T02:35:58.651Z,63.35
2022-10-30T02:38:25.707Z,62.38
2022-10-30T02:40:52.702Z,60.45
2022-10-30T02:43:19.710Z,60.33
2022-10-30T02:45:50.761Z,57.05
2022-10-30T02:48:17.786Z,57.72
2022-10-30T02:50:44.825Z,60.28
2022-10-30T02:53:11.876Z,56.92
2022-10-30T02:55:38.968Z,54.00
2022-10-30T02:58:05.987Z,47.67
2022-10-30T03:00:33.007Z,51.45
2022-10-30T03:03:00.036Z,51.55
2022-10-30T03:05:27.045Z,53.85
2022-10-30T03:07:55.052Z,53.88
2022-10-30T03:10:22.303Z,50.20
2022-10-30T03:12:49.332Z,53.13
2022-10-30T03:15:16.501Z,60.28
2022-10-30T03:17:43.591Z,45.20
2022-10-30T03:20:10.929Z,53.08
2022-10-30T03:22:37.925Z,52.22
2022-10-30T03:25:05.196Z,56.75
2022-10-30T03:27:32.266Z,55.75
2022-10-30T03:29:59.364Z,59.47
2022-10-30T03:32:26.382Z,53.15
2022-10-30T03:34:53.406Z,53.72
2022-10-30T03:37:20.414Z,53.15
2022-10-30T03:39:47.468Z,58.45
2022-10-30T03:42:14.499Z,56.42
2022-10-30T03:44:41.505Z,57.88
2022-10-30T03:47:08.596Z,54.72
2022-10-30T03:49:35.700Z,51.10
2022-10-30T03:52:02.780Z,52.25
2022-10-30T03:54:29.784Z,57.20
2022-10-30T03:56:56.872Z,61.03
2022-10-30T03:59:23.902Z,47.50
2022-10-30T04:01:51.083Z,57.17
2022-10-30T04:04:18.272Z,50.83
2022-10-30T04:06:45.275Z,53.30
2022-10-30T04:09:12.281Z,53.55
2022-10-30T04:11:39.348Z,48.92
2022-10-30T04:14:06.395Z,55.75
2022-10-30T04:16:33.481Z,52.67
2022-10-30T04:19:00.543Z,42.30
2022-10-30T04:21:27.554Z,51.55
2022-10-30T04:23:54.602Z,44.17
2022-10-30T04:26:21.709Z,45.60
2022-10-30T04:28:48.922Z,57.05
2022-10-30T04:31:15.930Z,46.22
2022-10-30T04:33:42.988Z,40.70
2022-10-30T04:36:10.105Z,37.50
2022-10-30T04:38:37.109Z,41.40
2022-10-30T04:41:04.137Z,40.60
2022-10-30T04:43:31.158Z,37.22
2022-10-30T04:45:58.254Z,47.53
2022-10-30T04:48:25.322Z,58.33
2022-10-30T04:50:52.354Z,60.97
2022-10-30T04:53:19.501Z,63.35
2022-10-30T04:55:46.759Z,50.50
2022-10-30T04:58:13.938Z,44.75
2022-10-30T05:00:41.069Z,40.08
2022-10-30T05:03:08.261Z,37.97
2022-10-30T05:05:35.316Z,35.75
2022-10-30T05:08:02.540Z,47.25
2022-10-30T05:10:29.777Z,32.40
2022-10-30T05:12:56.825Z,35.25
2022-10-30T05:15:24.041Z,31.98
2022-10-30T05:17:54.268Z,37.08
2022-10-30T05:20:21.522Z,44.13
2022-10-30T05:22:55.261Z,30.65
2022-10-30T05:25:22.425Z,30.23
2022-10-30T05:27:49.483Z,29.02
2022-10-30T05:30:16.596Z,30.35
2022-10-30T05:32:43.641Z,29.13
2022-10-30T05:35:10.656Z,32.10
2022-10-30T05:37:37.772Z,33.30
2022-10-30T05:40:04.985Z,33.50
2022-10-30T05:42:32.070Z,25.98
2022-10-30T05:45:01.716Z,35.80
2022-10-30T05:47:29.194Z,27.33
2022-10-30T05:49:56.216Z,32.45
2022-10-30T05:52:23.250Z,35.67
2022-10-30T05:54:50.311Z,34.45
2022-10-30T05:57:17.368Z,31.70
2022-10-30T05:59:44.465Z,42.10
2022-10-30T06:02:11.543Z,33.20
2022-10-30T06:04:38.565Z,38.38
2022-10-30T06:07:05.692Z,24.27
2022-10-30T06:09:32.701Z,30.38
2022-10-30T06:11:59.726Z,24.63
2022-10-30T06:14:26.721Z,25.33
2022-10-30T06:16:53.737Z,36.90
2022-10-30T06:19:20.780Z,43.13
2022-10-30T06:21:48.102Z,32.63
2022-10-30T06:24:15.236Z,38.70
2022-10-30T06:26:42.409Z,37.60
2022-10-30T06:29:09.452Z,42.53
2022-10-30T06:31:36.459Z,34.75
2022-10-30T06:34:03.546Z,41.58
2022-10-30T06:36:30.544Z,120.43
2022-10-30T06:38:57.623Z,43.67
2022-10-30T06:41:29.036Z,36.60
2022-10-30T06:43:57.277Z,35.40
2022-10-30T06:46:27.133Z,41.75
2022-10-30T06:48:57.744Z,35.47
2022-10-30T06:51:24.772Z,39.70
2022-10-30T06:53:51.781Z,29.20
2022-10-30T06:56:18.879Z,28.20
2022-10-30T06:58:45.961Z,29.38
2022-10-30T07:01:13.098Z,26.88
2022-10-30T07:03:40.280Z,23.25
2022-10-30T07:06:07.555Z,28.05
2022-10-30T07:08:34.594Z,20.33
2022-10-30T07:11:01.600Z,29.48
2022-10-30T07:13:28.651Z,19.98
2022-10-30T07:15:55.700Z,22.45
2022-10-30T07:18:22.722Z,24.73
2022-10-30T07:20:54.083Z,30.40
2022-10-30T07:23:21.072Z,35.83
2022-10-30T07:25:48.066Z,33.13
2022-10-30T07:28:15.113Z,24.60
2022-10-30T07:30:42.125Z,24.73
2022-10-30T07:33:09.758Z,26.33
2022-10-30T07:35:36.919Z,24.42
2022-10-30T07:38:04.656Z,23.73
2022-10-30T07:40:31.818Z,24.00
2022-10-30T07:42:59.478Z,19.52
2022-10-30T07:45:27.226Z,26.33
2022-10-30T07:47:54.278Z,19.67
2022-10-30T07:50:21.785Z,21.42
2022-10-30T07:52:48.906Z,23.38
2022-10-30T07:55:16.010Z,19.90
2022-10-30T07:57:43.103Z,24.17
2022-10-30T08:00:11.144Z,28.35
2022-10-30T08:02:38.329Z,25.27
2022-10-30T08:05:05.887Z,24.73
2022-10-30T08:07:33.069Z,20.10
2022-10-30T08:10:00.243Z,24.33
2022-10-30T08:12:27.578Z,17.65
2022-10-30T08:14:54.812Z,16.98
2022-10-30T08:17:21.930Z,19.25
2022-10-30T08:19:49.367Z,17.88
2022-10-30T08:22:16.408Z,21.33
2022-10-30T08:24:44.145Z,19.58
2022-10-30T08:27:11.164Z,25.55
2022-10-30T08:29:38.318Z,16.98
2022-10-30T08:32:05.550Z,19.02
2022-10-30T08:34:34.322Z,21.48
2022-10-30T08:37:01.395Z,21.38
2022-10-30T08:39:28.448Z,17.27
2022-10-30T08:41:57.352Z,21.40
2022-10-30T08:44:24.405Z,16.83
2022-10-30T08:46:51.440Z,17.65
2022-10-30T08:49:18.441Z,22.08
2022-10-30T08:51:45.994Z,16.60
2022-10-30T08:54:13.069Z,19.95
2022-10-30T08:56:40.093Z,17.73
2022-10-30T08:59:07.143Z,16.40
2022-10-30T09:01:34.339Z,19.17
2022-10-30T09:04:01.471Z,14.70
2022-10-30T09:06:28.475Z,18.42
2022-10-30T09:08:55.513Z,21.13
2022-10-30T09:11:22.516Z,18.42
2022-10-30T09:13:49.563Z,17.27
2022-10-30T09:16:16.573Z,14.05
2022-10-30T09:18:43.601Z,17.13
2022-10-30T09:21:10.987Z,20.30
2022-10-30T09:23:37.993Z,14.55
2022-10-30T09:26:05.038Z,14.95
2022-10-30T09:28:32.026Z,17.63
2022-10-30T09:30:59.046Z,16.10
2022-10-30T09:33:26.805Z,18.33
2022-10-30T09:35:53.832Z,19.60
2022-10-30T09:38:20.848Z,15.50
2022-10-30T09:40:55.228Z,15.30
2022-10-30T09:43:34.786Z,21.25
2022-10-30T09:46:14.221Z,14.55
2022-10-30T09:48:44.597Z,18.73
2022-10-30T09:51:26.902Z,16.35
2022-10-30T09:54:00.187Z,18.77
2022-10-30T09:56:35.361Z,17.50
2022-10-30T09:59:08.437Z,19.00
2022-10-30T10:01:40.641Z,22.42
2022-10-30T10:04:26.516Z,15.85
2022-10-30T10:06:56.563Z,20.73
2022-10-30T10:09:24.320Z,18.27
2022-10-30T10:12:05.702Z,19.73
2022-10-30T10:14:43.110Z,18.58
2022-10-30T10:17:11.992Z,25.05
2022-10-30T10:19:42.078Z,18.38
2022-10-30T10:24:36.775Z,14.75
2022-10-30T10:27:10.217Z,16.45
2022-10-30T10:29:41.756Z,17.70
2022-10-30T10:32:28.070Z,22.52
2022-10-30T10:35:13.588Z,24.25
2022-10-30T10:37:43.790Z,19.42
2022-10-30T10:40:13.613Z,16.65
2022-10-30T10:42:47.592Z,19.23
2022-10-30T10:45:33.419Z,21.75
2022-10-30T10:48:19.309Z,20.45
2022-10-30T10:50:49.867Z,20.73
2022-10-30T10:53:28.645Z,14.80
2022-10-30T10:55:57.570Z,20.15
2022-10-30T10:58:26.865Z,20.88
2022-10-30T11:00:53.930Z,19.80
2022-10-30T11:03:21.399Z,18.65
2022-10-30T11:05:52.208Z,19.42
2022-10-30T11:08:20.443Z,19.83
2022-10-30T11:10:48.784Z,19.60
2022-10-30T11:13:15.829Z,21.40
2022-10-30T11:15:46.957Z,17.05
2022-10-30T11:18:15.915Z,25.95
2022-10-30T11:20:52.094Z,19.90
2022-10-30T11:23:38.904Z,18.48
2022-10-30T11:26:10.375Z,20.05
2022-10-30T11:28:40.134Z,15.95
2022-10-30T11:31:40.308Z,15.93
2022-10-30T11:36:36.421Z,17.77
2022-10-30T11:39:09.603Z,20.08
2022-10-30T11:41:36.630Z,18.33
2022-10-30T11:44:03.652Z,16.52
2022-10-30T11:46:30.683Z,15.30
2022-10-30T11:48:57.717Z,18.55
2022-10-30T11:51:32.204Z,22.33
2022-10-30T11:53:59.279Z,16.23
2022-10-30T11:56:26.317Z,19.55
2022-10-30T11:58:54.344Z,15.70
2022-10-30T12:01:28.483Z,19.17
2022-10-30T12:03:55.794Z,18.52
2022-10-30T12:06:25.839Z,19.15
2022-10-30T12:11:19.812Z,17.42
2022-10-30T12:13:46.814Z,14.43
2022-10-30T12:16:15.475Z,17.65
2022-10-30T12:18:42.582Z,18.00
2022-10-30T12:21:10.057Z,18.23
2022-10-30T12:23:37.068Z,15.57
2022-10-30T12:26:11.151Z,21.02
2022-10-30T12:28:38.164Z,15.95
2022-10-30T12:31:10.984Z,17.73
2022-10-30T12:33:39.532Z,16.05
2022-10-30T12:36:07.721Z,13.93
2022-10-30T12:38:39.021Z,17.42
2022-10-30T12:41:12.330Z,15.90
2022-10-30T12:43:39.358Z,11.07
2022-10-30T12:46:08.919Z,16.95
2022-10-30T12:48:42.021Z,15.90
2022-10-30T12:51:12.092Z,13.82
2022-10-30T12:53:40.404Z,13.60
2022-10-30T12:56:14.394Z,14.40
2022-10-30T12:59:00.224Z,15.15
2022-10-30T13:01:37.711Z,14.45
2022-10-30T13:04:21.325Z,18.98
2022-10-30T13:06:48.388Z,15.10
2022-10-30T13:09:15.373Z,12.98
2022-10-30T13:11:49.961Z,18.77
2022-10-30T13:14:17.772Z,13.20
2022-10-30T13:16:44.891Z,12.75
2022-10-30T13:19:12.838Z,15.55
2022-10-30T13:24:12.764Z,14.30
2022-10-30T13:26:39.768Z,15.90
2022-10-30T13:29:25.548Z,12.38
2022-10-30T13:32:11.418Z,11.23
2022-10-30T13:34:40.810Z,18.48
2022-10-30T13:37:14.058Z,9.93
2022-10-30T13:39:50.214Z,15.25
2022-10-30T13:42:37.545Z,9.13
2022-10-30T13:45:07.674Z,12.13
2022-10-30T13:47:40.796Z,12.32
2022-10-30T13:50:08.023Z,14.07
2022-10-30T13:52:35.601Z,17.00
2022-10-30T13:55:14.728Z,11.52
2022-10-30T13:57:44.917Z,13.60
2022-10-30T14:00:20.953Z,12.32
2022-10-30T14:03:00.894Z,17.73
2022-10-30T14:05:31.386Z,11.82
2022-10-30T14:08:16.868Z,12.60
2022-10-30T14:10:43.866Z,13.23
2022-10-30T14:13:31.198Z,16.00
2022-10-30T14:15:58.249Z,13.85
2022-10-30T14:18:26.300Z,14.13
2022-10-30T14:20:53.681Z,16.05
2022-10-30T14:23:21.168Z,14.60
2022-10-30T14:26:03.464Z,15.10
2022-10-30T14:28:30.894Z,9.88
2022-10-30T14:31:11.085Z,14.07
2022-10-30T14:33:41.216Z,15.57
2022-10-30T14:36:14.988Z,14.10
2022-10-30T14:38:42.008Z,12.80
2022-10-30T14:41:38.270Z,13.43
2022-10-30T14:44:18.337Z,14.60
2022-10-30T14:49:28.909Z,14.70
2022-10-30T14:52:00.690Z,32.67
2022-10-30T14:54:41.949Z,16.95
2022-10-30T14:57:24.703Z,12.73
2022-10-30T15:00:02.517Z,16.73
2022-10-30T15:02:32.148Z,14.38
2022-10-30T15:05:12.733Z,11.25
2022-10-30T15:07:44.975Z,13.55
2022-10-30T15:10:23.614Z,8.30
2022-10-30T15:13:09.997Z,15.23
2022-10-30T15:15:37.261Z,7.45
2022-10-30T15:18:09.109Z,13.23
2022-10-30T15:20:36.157Z,11.13
2022-10-30T15:23:08.359Z,11.88
2022-10-30T15:25:36.476Z,14.45
2022-10-30T15:28:03.727Z,11.35
2022-10-30T15:30:30.760Z,8.20
2022-10-30T15:32:58.147Z,16.08
2022-10-30T15:35:26.367Z,11.10
2022-10-30T15:37:57.913Z,10.95
2022-10-30T15:40:25.049Z,10.98
2022-10-30T15:42:52.152Z,8.15
2022-10-30T15:45:20.415Z,18.45
2022-10-30T15:47:48.540Z,18.10
2022-10-30T15:50:16.101Z,12.25
2022-10-30T15:52:43.145Z,12.65
2022-10-30T15:55:10.747Z,13.32
2022-10-30T16:00:33.007Z,14.32
2022-10-30T16:03:01.015Z,13.00
2022-10-30T16:05:28.634Z,13.45
2022-10-30T16:07:56.767Z,15.52
2022-10-30T16:10:24.169Z,19.92
2022-10-30T16:12:52.953Z,11.52
2022-10-30T16:15:25.663Z,14.18
2022-10-30T16:18:28.212Z,10.60
2022-10-30T16:20:55.937Z,10.57
2022-10-30T16:23:23.086Z,17.88
2022-10-30T16:25:54.200Z,11.07
2022-10-30T16:28:29.088Z,10.18
2022-10-30T16:30:57.544Z,12.18
2022-10-30T16:33:26.047Z,12.55
2022-10-30T16:35:55.676Z,15.70
2022-10-30T16:38:23.328Z,14.40
2022-10-30T16:40:50.323Z,14.73
2022-10-30T16:43:28.289Z,13.10
2022-10-30T16:45:55.570Z,15.32
2022-10-30T16:48:27.508Z,22.02
2022-10-30T16:51:01.206Z,41.38
2022-10-30T16:53:28.744Z,15.75
2022-10-30T16:55:56.126Z,23.33
2022-10-30T16:58:24.734Z,16.73
2022-10-30T17:00:52.785Z,16.92
2022-10-30T17:03:22.932Z,18.65
2022-10-30T17:05:56.911Z,15.05
2022-10-30T17:08:23.907Z,15.57
2022-10-30T17:10:58.717Z,14.52
2022-10-30T17:13:38.387Z,18.90
2022-10-30T17:16:25.552Z,20.63
2022-10-30T17:18:53.564Z,22.23
2022-10-30T17:21:40.241Z,16.35
2022-10-30T17:24:07.406Z,14.63
2022-10-30T17:26:36.522Z,16.80
2022-10-30T17:29:03.518Z,14.80
2022-10-30T17:31:39.478Z,15.23
2022-10-30T17:34:16.760Z,27.27
2022-10-30T17:36:43.899Z,18.48
2022-10-30T17:39:11.032Z,19.58
2022-10-30T17:41:38.160Z,23.05
2022-10-30T17:44:05.280Z,26.15
2022-10-30T17:46:32.329Z,27.25
2022-10-30T17:48:59.515Z,23.67
2022-10-30T17:51:26.567Z,25.42
2022-10-30T17:53:53.669Z,20.38
2022-10-30T17:56:20.677Z,18.60
2022-10-30T17:58:47.795Z,24.20
2022-10-30T18:01:18.837Z,29.23
2022-10-30T18:03:45.934Z,43.08
2022-10-30T18:06:17.220Z,54.90
2022-10-30T18:08:47.878Z,31.73
2022-10-30T18:11:19.833Z,30.83
2022-10-30T18:13:47.266Z,18.92
2022-10-30T18:16:14.476Z,18.75
2022-10-30T18:18:41.659Z,18.60
2022-10-30T18:21:15.364Z,25.20
2022-10-30T18:23:57.994Z,24.95
2022-10-30T18:26:25.825Z,27.42
2022-10-30T18:28:53.050Z,20.95
2022-10-30T18:31:20.999Z,23.98
2022-10-30T18:33:48.180Z,23.98
2022-10-30T18:36:19.220Z,16.17
2022-10-30T18:38:46.240Z,25.15
2022-10-30T18:41:20.842Z,16.65
2022-10-30T18:43:47.888Z,20.17
2022-10-30T18:46:15.260Z,19.92
2022-10-30T18:48:42.307Z,18.45
2022-10-30T18:51:23.044Z,27.55
2022-10-30T18:53:52.831Z,14.40
2022-10-30T18:56:23.820Z,27.05
2022-10-30T18:58:54.792Z,21.80
2022-10-30T19:01:25.719Z,29.05
2022-10-30T19:03:52.891Z,27.55
2022-10-30T19:06:20.705Z,30.02
2022-10-30T19:08:47.812Z,24.00
2022-10-30T19:11:17.649Z,27.48
2022-10-30T19:13:49.273Z,28.75
2022-10-30T19:16:17.134Z,29.42
2022-10-30T19:18:44.421Z,26.67
2022-10-30T19:21:18.154Z,23.33
2022-10-30T19:23:45.225Z,34.70
2022-10-30T19:26:14.345Z,30.90
2022-10-30T19:28:41.752Z,21.10
2022-10-30T19:31:08.942Z,19.25
2022-10-30T19:33:35.968Z,20.23
2022-10-30T19:36:06.132Z,26.60
2022-10-30T19:38:33.281Z,24.38
2022-10-30T19:41:00.456Z,20.05
2022-10-30T19:43:27.511Z,23.60
2022-10-30T19:45:56.649Z,18.85
2022-10-30T19:48:47.662Z,26.08
2022-10-30T19:51:11.710Z,16.40
2022-10-30T19:53:40.306Z,19.05
2022-10-30T19:56:09.447Z,23.67
2022-10-30T19:58:36.477Z,23.42
2022-10-30T20:01:03.565Z,20.52
2022-10-30T20:03:30.633Z,51.88
2022-10-30T20:05:57.647Z,66.13
2022-10-30T20:08:25.554Z,52.50
2022-10-30T20:10:56.187Z,42.05
2022-10-30T20:13:23.573Z,43.72
2022-10-30T20:15:51.012Z,41.22
2022-10-30T20:18:18.777Z,35.55
2022-10-30T20:20:47.267Z,35.00
2022-10-30T20:23:14.306Z,37.45
2022-10-30T20:25:41.289Z,37.08
2022-10-30T20:28:18.049Z,35.72
2022-10-30T20:30:45.064Z,41.13
2022-10-30T20:33:12.590Z,45.60
2022-10-30T20:35:39.600Z,48.80
2022-10-30T20:38:06.633Z,35.20
2022-10-30T20:40:34.112Z,38.67
2022-10-30T20:43:02.987Z,36.55
2022-10-30T20:45:30.380Z,36.17
2022-10-30T20:47:57.754Z,46.33
2022-10-30T20:50:24.997Z,38.67
2022-10-30T20:52:53.358Z,32.45
2022-10-30T20:55:20.833Z,37.28
2022-10-30T20:57:47.853Z,35.75
2022-10-30T21:00:15.120Z,34.90
2022-10-30T21:02:42.209Z,39.63
2022-10-30T21:05:12.131Z,38.13
2022-10-30T21:07:58.009Z,36.60
2022-10-30T21:10:30.211Z,41.20
2022-10-30T21:12:59.828Z,46.67
2022-10-30T21:15:29.269Z,34.85
2022-10-30T21:17:56.504Z,44.00
2022-10-30T21:20:23.665Z,42.78
2022-10-30T21:22:50.686Z,40.72
2022-10-30T21:25:17.794Z,43.70
2022-10-30T21:30:12.993Z,38.15
2022-10-30T21:32:40.038Z,46.28
2022-10-30T21:35:07.199Z,41.17
2022-10-30T21:37:37.283Z,46.80
2022-10-30T21:40:04.922Z,44.80
2022-10-30T21:42:32.793Z,46.13
2022-10-30T21:44:59.971Z,48.15
2022-10-30T21:47:27.011Z,50.30
2022-10-30T21:49:54.029Z,43.70
2022-10-30T21:52:21.013Z,38.42
2022-10-30T21:54:48.024Z,55.60
2022-10-30T21:57:15.037Z,29.42
2022-10-30T21:59:42.051Z,25.48
2022-10-30T22:02:11.854Z,32.30
2022-10-30T22:04:38.908Z,40.67
2022-10-30T22:07:05.921Z,38.60
2022-10-30T22:09:32.916Z,32.40
2022-10-30T22:11:59.932Z,30.75
2022-10-30T22:14:26.964Z,36.15
2022-10-30T22:16:53.977Z,41.33
2022-10-30T22:19:20.975Z,36.75
2022-10-30T22:21:47.987Z,39.55
2022-10-30T22:24:15.924Z,41.00
2022-10-30T22:26:42.958Z,42.00
2022-10-30T22:29:09.973Z,32.83
2022-10-30T22:31:36.997Z,34.90
2022-10-30T22:34:03.997Z,34.67
2022-10-30T22:36:31.728Z,33.72
2022-10-30T22:39:07.279Z,32.63
2022-10-30T22:41:37.610Z,39.45
2022-10-30T22:44:07.583Z,24.55
2022-10-30T22:46:35.234Z,37.08
2022-10-30T22:49:02.283Z,29.98
2022-10-30T22:51:31.268Z,34.88
2022-10-30T22:53:59.285Z,31.13
2022-10-30T22:56:27.115Z,25.13
2022-10-30T22:58:54.234Z,37.85
2022-10-30T23:01:23.392Z,32.97
2022-10-30T23:03:51.903Z,35.10
2022-10-30T23:06:19.463Z,37.70
2022-10-30T23:08:46.509Z,30.27
2022-10-30T23:11:13.583Z,35.60
2022-10-30T23:13:40.652Z,34.88
2022-10-30T23:16:08.276Z,29.92
2022-10-30T23:18:35.392Z,27.73
2022-10-30T23:21:03.514Z,30.63
2022-10-30T23:23:30.688Z,30.25
2022-10-30T23:26:02.000Z,49.88
2022-10-30T23:28:29.074Z,33.90
2022-10-30T23:30:56.104Z,42.08
2022-10-30T23:33:23.109Z,39.53
2022-10-30T23:35:50.128Z,38.85
2022-10-30T23:38:17.122Z,34.42
2022-10-30T23:40:44.137Z,32.70
2022-10-30T23:43:11.170Z,30.80
2022-10-30T23:45:39.612Z,32.58
2022-10-30T23:48:06.836Z,34.88
2022-10-30T23:50:35.171Z,30.65
2022-10-30T23:53:02.375Z,35.13
2022-10-30T23:55:29.377Z,34.05
2022-10-30T23:57:56.492Z,33.15
